createdAt,value
2018-10-09T00:01:01.459Z,86.79
2018-10-09T00:03:30.000Z,87.69
2018-10-09T00:05:58.585Z,87.24
2018-10-09T00:08:27.145Z,88.24
2018-10-09T00:10:55.900Z,88.06
2018-10-09T00:13:24.612Z,88.23
2018-10-09T00:15:53.313Z,87.73
2018-10-09T00:18:22.057Z,88.50
2018-10-09T00:20:50.628Z,88.78
2018-10-09T00:23:19.203Z,88.51
2018-10-09T00:25:48.143Z,88.14
2018-10-09T00:28:16.686Z,88.42
2018-10-09T00:30:45.243Z,88.90
2018-10-09T00:33:13.926Z,89.12
2018-10-09T00:35:42.561Z,88.97
2018-10-09T00:38:11.150Z,89.35
2018-10-09T00:40:39.685Z,88.68
2018-10-09T00:43:08.238Z,89.36
2018-10-09T00:45:37.376Z,89.46
2018-10-09T00:48:05.956Z,89.50
2018-10-09T00:50:34.785Z,90.05
2018-10-09T00:53:04.001Z,90.24
2018-10-09T00:55:32.689Z,90.07
2018-10-09T00:58:01.312Z,89.32
2018-10-09T01:00:32.206Z,89.74
2018-10-09T01:03:00.801Z,90.56
2018-10-09T01:05:29.333Z,90.41
2018-10-09T01:07:58.151Z,90.64
2018-10-09T01:10:26.709Z,90.14
2018-10-09T01:12:55.385Z,91.11
2018-10-09T01:15:23.988Z,90.69
2018-10-09T01:17:52.620Z,91.70
2018-10-09T01:20:26.521Z,91.20
2018-10-09T01:22:55.161Z,91.38
2018-10-09T01:25:23.827Z,92.05
2018-10-09T01:27:52.389Z,92.31
2018-10-09T01:30:20.921Z,92.14
2018-10-09T01:32:49.520Z,92.06
2018-10-09T01:35:18.065Z,91.70
2018-10-09T01:37:46.754Z,91.76
2018-10-09T01:40:15.484Z,92.73
2018-10-09T01:42:44.039Z,92.25
2018-10-09T01:45:12.618Z,92.82
2018-10-09T01:47:41.517Z,93.37
2018-10-09T01:50:14.282Z,93.27
2018-10-09T01:52:43.125Z,93.15
2018-10-09T01:55:11.709Z,93.05
2018-10-09T01:57:40.295Z,92.10
2018-10-09T02:00:09.885Z,91.97
2018-10-09T02:02:38.563Z,92.09
2018-10-09T02:05:07.493Z,91.73
2018-10-09T02:07:36.273Z,91.61
2018-10-09T02:10:05.493Z,90.79
2018-10-09T02:12:34.053Z,90.75
2018-10-09T02:15:03.120Z,91.27
2018-10-09T02:17:31.673Z,91.42
2018-10-09T02:20:00.222Z,92.22
2018-10-09T02:22:28.741Z,92.39
2018-10-09T02:24:57.554Z,92.33
2018-10-09T02:27:26.186Z,91.59
2018-10-09T02:29:54.742Z,91.92
2018-10-09T02:32:23.298Z,91.25
2018-10-09T02:34:51.842Z,91.94
2018-10-09T02:37:20.409Z,91.50
2018-10-09T02:39:49.041Z,91.48
2018-10-09T02:42:17.778Z,92.06
2018-10-09T02:44:46.466Z,91.25
2018-10-09T02:47:15.018Z,91.69
2018-10-09T02:49:43.563Z,91.24
2018-10-09T02:52:12.148Z,91.49
2018-10-09T02:54:40.694Z,91.25
2018-10-09T02:57:09.244Z,90.72
2018-10-09T02:59:38.283Z,91.24
2018-10-09T03:02:07.011Z,91.87
2018-10-09T03:04:35.590Z,92.02
2018-10-09T03:07:04.167Z,92.14
2018-10-09T03:09:32.732Z,92.46
2018-10-09T03:12:01.289Z,92.45
2018-10-09T03:14:29.837Z,91.97
2018-10-09T03:16:58.834Z,91.54
2018-10-09T03:19:27.738Z,91.44
2018-10-09T03:21:56.306Z,91.38
2018-10-09T03:24:24.885Z,90.55
2018-10-09T03:26:53.441Z,90.61
2018-10-09T03:29:22.021Z,91.17
2018-10-09T03:31:50.568Z,91.28
2018-10-09T03:34:19.213Z,91.31
2018-10-09T03:36:47.862Z,91.87
2018-10-09T03:39:16.422Z,91.88
2018-10-09T03:41:45.042Z,92.37
2018-10-09T03:44:13.609Z,92.41
2018-10-09T03:46:42.162Z,92.76
2018-10-09T03:49:10.750Z,92.89
2018-10-09T03:51:39.412Z,92.91
2018-10-09T03:54:08.126Z,93.44
2018-10-09T03:56:36.762Z,93.43
2018-10-09T03:59:05.454Z,93.71
2018-10-09T04:01:34.031Z,93.19
2018-10-09T04:04:02.571Z,94.02
2018-10-09T04:06:31.257Z,93.11
2018-10-09T04:09:00.229Z,93.35
2018-10-09T04:11:29.108Z,93.29
2018-10-09T04:13:57.639Z,92.83
2018-10-09T04:16:26.190Z,92.55
2018-10-09T04:18:54.909Z,92.60
2018-10-09T04:21:23.469Z,92.43
2018-10-09T04:23:52.090Z,92.77
2018-10-09T04:26:20.697Z,92.65
2018-10-09T04:28:49.370Z,92.91
2018-10-09T04:31:17.952Z,92.56
2018-10-09T04:33:46.522Z,93.04
2018-10-09T04:36:15.065Z,92.99
2018-10-09T04:38:43.649Z,93.42
2018-10-09T04:41:12.286Z,93.46
2018-10-09T04:43:40.981Z,93.56
2018-10-09T04:46:09.525Z,93.87
2018-10-09T04:48:38.078Z,93.98
2018-10-09T04:51:06.629Z,93.74
2018-10-09T04:53:35.418Z,94.12
2018-10-09T04:56:04.033Z,94.66
2018-10-09T04:58:32.822Z,95.12
2018-10-09T05:01:01.469Z,94.49
2018-10-09T05:03:30.103Z,95.20
2018-10-09T05:05:58.645Z,95.47
2018-10-09T05:08:27.221Z,95.52
2018-10-09T05:10:55.768Z,95.55
2018-10-09T05:13:24.333Z,95.21
2018-10-09T05:15:52.989Z,95.61
2018-10-09T05:18:21.582Z,95.82
2018-10-09T05:20:50.374Z,95.18
2018-10-09T05:23:19.096Z,94.99
2018-10-09T05:25:47.822Z,95.51
2018-10-09T05:28:16.389Z,95.09
2018-10-09T05:30:44.948Z,95.98
2018-10-09T05:33:13.605Z,96.05
2018-10-09T05:35:42.239Z,95.56
2018-10-09T05:38:10.967Z,95.99
2018-10-09T05:40:39.538Z,96.04
2018-10-09T05:43:08.121Z,95.40
2018-10-09T05:45:38.597Z,95.23
2018-10-09T05:48:08.303Z,94.90
2018-10-09T05:50:37.321Z,94.16
2018-10-09T05:53:06.051Z,94.61
2018-10-09T05:55:35.158Z,93.72
2018-10-09T05:58:03.857Z,94.22
2018-10-09T06:00:32.685Z,93.46
2018-10-09T06:03:01.499Z,93.39
2018-10-09T06:05:30.690Z,93.47
2018-10-09T06:07:59.273Z,93.03
2018-10-09T06:10:27.850Z,90.52
2018-10-09T06:12:56.442Z,89.53
2018-10-09T06:15:25.183Z,87.55
2018-10-09T06:17:54.055Z,85.51
2018-10-09T06:20:22.715Z,84.61
2018-10-09T06:22:51.559Z,83.02
2018-10-09T06:25:20.176Z,82.55
2018-10-09T06:27:48.748Z,80.87
2018-10-09T06:30:17.314Z,80.62
2018-10-09T06:32:45.898Z,78.62
2018-10-09T06:35:14.607Z,77.12
2018-10-09T06:37:43.341Z,76.34
2018-10-09T06:40:11.918Z,75.11
2018-10-09T06:42:40.529Z,72.78
2018-10-09T06:45:09.266Z,70.51
2018-10-09T06:47:38.626Z,66.86
2018-10-09T06:50:07.517Z,64.94
2018-10-09T06:52:36.243Z,64.22
2018-10-09T06:55:05.045Z,65.06
2018-10-09T06:57:33.731Z,63.41
2018-10-09T07:00:02.350Z,63.42
2018-10-09T07:02:31.170Z,63.87
2018-10-09T07:04:59.723Z,62.75
2018-10-09T07:07:28.271Z,62.33
2018-10-09T07:09:56.930Z,61.91
2018-10-09T07:12:25.714Z,61.87
2018-10-09T07:14:54.423Z,62.40
2018-10-09T07:17:23.064Z,62.00
2018-10-09T07:19:51.703Z,62.26
2018-10-09T07:22:20.258Z,61.43
2018-10-09T07:24:48.808Z,59.76
2018-10-09T07:27:17.519Z,58.35
2018-10-09T07:29:46.204Z,57.54
2018-10-09T07:32:14.845Z,56.82
2018-10-09T07:34:43.396Z,57.66
2018-10-09T07:37:11.936Z,58.20
2018-10-09T07:39:40.518Z,60.46
2018-10-09T07:42:09.120Z,61.44
2018-10-09T07:44:38.274Z,61.05
2018-10-09T07:47:06.927Z,60.70
2018-10-09T07:49:35.569Z,59.69
2018-10-09T07:52:04.163Z,57.67
2018-10-09T07:54:32.803Z,55.24
2018-10-09T07:57:01.390Z,54.19
2018-10-09T07:59:29.976Z,55.08
2018-10-09T08:01:58.689Z,53.84
2018-10-09T08:04:27.421Z,52.11
2018-10-09T08:06:56.009Z,52.58
2018-10-09T08:09:24.574Z,53.07
2018-10-09T08:11:53.143Z,53.15
2018-10-09T08:14:21.713Z,52.38
2018-10-09T08:16:50.366Z,52.11
2018-10-09T08:19:18.985Z,53.05
2018-10-09T08:21:48.122Z,53.91
2018-10-09T08:24:16.885Z,56.38
2018-10-09T08:26:45.445Z,57.58
2018-10-09T08:29:14.054Z,58.74
2018-10-09T08:31:42.644Z,59.10
2018-10-09T08:34:13.346Z,60.76
2018-10-09T08:36:41.898Z,62.02
2018-10-09T08:39:10.510Z,61.24
2018-10-09T08:41:39.157Z,62.19
2018-10-09T08:44:07.709Z,60.79
2018-10-09T08:46:36.254Z,60.37
2018-10-09T08:49:04.809Z,60.63
2018-10-09T08:51:33.386Z,60.20
2018-10-09T08:54:01.990Z,59.79
2018-10-09T08:56:30.630Z,59.95
2018-10-09T08:58:59.345Z,59.94
2018-10-09T09:01:28.099Z,59.36
2018-10-09T09:03:56.695Z,58.67
2018-10-09T09:06:25.346Z,57.86
2018-10-09T09:08:53.906Z,58.16
2018-10-09T09:11:22.444Z,57.49
2018-10-09T09:13:51.081Z,58.22
2018-10-09T09:16:19.984Z,58.56
2018-10-09T09:18:48.594Z,59.56
2018-10-09T09:21:17.256Z,58.89
2018-10-09T09:23:45.936Z,60.27
2018-10-09T09:26:14.520Z,59.96
2018-10-09T09:28:43.223Z,60.46
2018-10-09T09:31:11.831Z,60.57
2018-10-09T09:33:40.406Z,61.83
2018-10-09T09:36:09.059Z,62.23
2018-10-09T09:38:37.613Z,62.86
2018-10-09T09:41:06.674Z,63.21
2018-10-09T09:43:35.274Z,61.03
2018-10-09T09:46:03.863Z,62.36
2018-10-09T09:48:32.850Z,62.60
2018-10-09T09:51:01.514Z,62.39
2018-10-09T09:53:30.221Z,63.57
2018-10-09T09:55:58.860Z,63.02
2018-10-09T09:58:27.506Z,63.05
2018-10-09T10:00:57.498Z,63.44
2018-10-09T10:03:26.889Z,62.75
2018-10-09T10:05:55.613Z,62.37
2018-10-09T10:08:24.239Z,61.46
2018-10-09T10:10:52.814Z,62.14
2018-10-09T10:13:21.429Z,61.78
2018-10-09T10:15:50.065Z,62.10
2018-10-09T10:18:18.774Z,61.20
2018-10-09T10:20:47.388Z,59.65
2018-10-09T10:23:15.950Z,59.56
2018-10-09T10:25:44.495Z,59.74
2018-10-09T10:28:13.246Z,59.76
2018-10-09T10:30:42.097Z,59.33
2018-10-09T10:33:10.801Z,59.20
2018-10-09T10:35:39.419Z,60.33
2018-10-09T10:38:08.491Z,58.40
2018-10-09T10:40:37.162Z,58.35
2018-10-09T10:43:06.006Z,57.97
2018-10-09T10:45:34.595Z,57.88
2018-10-09T10:48:03.579Z,58.17
2018-10-09T10:50:32.231Z,57.94
2018-10-09T10:53:00.791Z,57.16
2018-10-09T10:55:29.377Z,58.16
2018-10-09T10:57:58.058Z,58.24
2018-10-09T11:00:26.626Z,56.99
2018-10-09T11:02:55.192Z,56.66
2018-10-09T11:05:23.876Z,56.52
2018-10-09T11:07:52.449Z,56.67
2018-10-09T11:10:21.250Z,57.21
2018-10-09T11:12:49.776Z,56.49
2018-10-09T11:15:18.349Z,55.67
2018-10-09T11:17:46.910Z,56.83
2018-10-09T11:20:16.069Z,55.40
2018-10-09T11:22:44.785Z,55.38
2018-10-09T11:25:13.481Z,57.14
2018-10-09T11:27:42.079Z,56.41
2018-10-09T11:30:11.000Z,56.30
2018-10-09T11:32:39.641Z,56.33
2018-10-09T11:35:08.419Z,55.08
2018-10-09T11:37:36.978Z,55.48
2018-10-09T11:40:05.575Z,55.19
2018-10-09T11:42:34.249Z,54.39
2018-10-09T11:45:02.899Z,54.70
2018-10-09T11:47:31.490Z,54.69
2018-10-09T11:50:00.034Z,54.79
2018-10-09T11:52:28.639Z,54.67
2018-10-09T11:54:57.186Z,53.87
2018-10-09T11:57:25.847Z,53.62
2018-10-09T11:59:54.593Z,54.48
2018-10-09T12:02:23.257Z,54.28
2018-10-09T12:04:51.797Z,55.97
2018-10-09T12:07:20.734Z,55.25
2018-10-09T12:09:49.270Z,54.07
2018-10-09T12:12:18.266Z,54.18
2018-10-09T12:14:46.811Z,54.28
2018-10-09T12:17:15.394Z,53.75
2018-10-09T12:19:44.060Z,54.44
2018-10-09T12:22:12.661Z,54.35
2018-10-09T12:24:41.243Z,53.53
2018-10-09T12:27:09.842Z,53.07
2018-10-09T12:29:38.598Z,54.60
2018-10-09T12:32:07.158Z,54.77
2018-10-09T12:34:35.806Z,54.95
2018-10-09T12:37:04.438Z,53.55
2018-10-09T12:39:33.011Z,53.00
2018-10-09T12:42:01.596Z,52.51
2018-10-09T12:44:30.197Z,52.59
2018-10-09T12:46:58.927Z,52.62
2018-10-09T12:49:27.515Z,52.30
2018-10-09T12:51:56.188Z,53.58
2018-10-09T12:54:24.929Z,53.22
2018-10-09T12:56:53.505Z,53.60
2018-10-09T12:59:22.077Z,53.84
2018-10-09T13:01:50.695Z,52.88
2018-10-09T13:04:19.237Z,53.82
2018-10-09T13:06:47.933Z,54.37
2018-10-09T13:09:17.029Z,52.58
2018-10-09T13:11:45.801Z,51.67
2018-10-09T13:14:14.426Z,51.32
2018-10-09T13:16:42.979Z,52.67
2018-10-09T13:19:11.546Z,53.28
2018-10-09T13:21:40.980Z,53.32
2018-10-09T13:24:09.579Z,53.40
2018-10-09T13:26:38.367Z,51.56
2018-10-09T13:29:06.946Z,51.98
2018-10-09T13:31:35.515Z,52.35
2018-10-09T13:34:04.112Z,52.97
2018-10-09T13:36:32.830Z,53.51
2018-10-09T13:39:01.417Z,53.82
2018-10-09T13:41:30.028Z,54.22
2018-10-09T13:43:58.627Z,53.90
2018-10-09T13:46:27.557Z,54.58
2018-10-09T13:48:56.122Z,55.94
2018-10-09T13:51:24.762Z,55.01
2018-10-09T13:53:53.486Z,53.84
2018-10-09T13:56:22.043Z,53.72
2018-10-09T13:58:50.591Z,55.19
2018-10-09T14:01:19.317Z,53.89
2018-10-09T14:03:48.096Z,54.29
2018-10-09T14:06:17.001Z,53.51
2018-10-09T14:08:45.702Z,53.88
2018-10-09T14:11:14.244Z,55.36
2018-10-09T14:13:42.810Z,53.82
2018-10-09T14:16:11.434Z,53.82
2018-10-09T14:18:40.159Z,54.58
2018-10-09T14:21:09.007Z,54.99
2018-10-09T14:23:37.670Z,55.05
2018-10-09T14:26:06.234Z,54.94
2018-10-09T14:28:34.836Z,56.12
2018-10-09T14:31:03.572Z,54.63
2018-10-09T14:33:32.130Z,54.80
2018-10-09T14:36:00.750Z,55.19
2018-10-09T14:38:29.814Z,55.02
2018-10-09T14:40:58.574Z,54.89
2018-10-09T14:43:27.157Z,55.03
2018-10-09T14:45:55.880Z,54.89
2018-10-09T14:48:24.453Z,54.81
2018-10-09T14:50:53.062Z,54.25
2018-10-09T14:53:21.655Z,54.72
2018-10-09T14:55:50.330Z,54.39
2018-10-09T14:58:19.129Z,55.18
2018-10-09T15:00:47.683Z,55.56
2018-10-09T15:03:16.278Z,55.85
2018-10-09T15:05:44.979Z,56.69
2018-10-09T15:08:13.553Z,56.47
2018-10-09T15:10:42.835Z,57.00
2018-10-09T15:13:11.498Z,57.29
2018-10-09T15:15:40.198Z,57.35
2018-10-09T15:18:09.018Z,58.34
2018-10-09T15:20:37.641Z,59.50
2018-10-09T15:23:06.994Z,58.35
2018-10-09T15:25:35.585Z,59.72
2018-10-09T15:28:04.638Z,60.08
2018-10-09T15:30:33.285Z,60.97
2018-10-09T15:33:02.365Z,62.22
2018-10-09T15:35:31.049Z,63.69
2018-10-09T15:37:59.769Z,63.97
2018-10-09T15:40:28.343Z,63.28
2018-10-09T15:42:56.961Z,63.20
2018-10-09T15:45:25.510Z,63.63
2018-10-09T15:47:54.150Z,64.34
2018-10-09T15:50:22.859Z,64.08
2018-10-09T15:52:51.765Z,64.61
2018-10-09T15:55:20.702Z,65.41
2018-10-09T15:57:49.293Z,67.01
2018-10-09T16:00:17.884Z,68.35
2018-10-09T16:02:46.437Z,69.55
2018-10-09T16:05:14.995Z,69.10
2018-10-09T16:07:43.686Z,68.81
2018-10-09T16:10:12.337Z,69.36
2018-10-09T16:12:40.987Z,69.48
2018-10-09T16:15:09.742Z,69.98
2018-10-09T16:17:38.436Z,71.26
2018-10-09T16:20:07.265Z,72.14
2018-10-09T16:22:36.333Z,72.75
2018-10-09T16:25:05.046Z,73.76
2018-10-09T16:27:33.770Z,74.78
2018-10-09T16:30:02.482Z,74.92
2018-10-09T16:32:31.483Z,76.29
2018-10-09T16:35:00.207Z,76.23
2018-10-09T16:37:28.809Z,77.00
2018-10-09T16:39:57.482Z,77.25
2018-10-09T16:42:26.195Z,77.73
2018-10-09T16:44:54.801Z,77.64
2018-10-09T16:47:23.469Z,77.46
2018-10-09T16:49:52.181Z,77.90
2018-10-09T16:52:20.747Z,78.42
2018-10-09T16:54:49.533Z,77.73
2018-10-09T16:57:18.154Z,77.42
2018-10-09T16:59:46.716Z,77.16
2018-10-09T17:02:15.290Z,76.74
2018-10-09T17:04:44.766Z,77.19
2018-10-09T17:07:13.419Z,78.03
2018-10-09T17:09:42.403Z,78.36
2018-10-09T17:12:10.975Z,79.01
2018-10-09T17:14:39.535Z,78.75
2018-10-09T17:17:08.114Z,78.58
2018-10-09T17:19:36.715Z,78.28
2018-10-09T17:22:05.616Z,79.05
2018-10-09T17:24:34.311Z,79.46
2018-10-09T17:27:02.886Z,80.58
2018-10-09T17:29:31.429Z,79.93
2018-10-09T17:32:00.002Z,80.85
2018-10-09T17:34:28.650Z,81.74
2018-10-09T17:36:58.950Z,81.92
2018-10-09T17:39:27.638Z,81.65
2018-10-09T17:41:56.431Z,80.84
2018-10-09T17:44:25.192Z,80.26
2018-10-09T17:46:53.965Z,80.56
2018-10-09T17:49:22.823Z,81.31
2018-10-09T17:51:52.758Z,81.43
2018-10-09T17:54:21.466Z,81.41
2018-10-09T17:56:50.870Z,80.88
2018-10-09T17:59:19.607Z,80.92
2018-10-09T18:01:48.508Z,81.16
2018-10-09T18:04:17.166Z,81.08
2018-10-09T18:06:46.496Z,81.11
2018-10-09T18:09:15.129Z,81.59
2018-10-09T18:11:43.795Z,81.88
2018-10-09T18:14:12.812Z,81.50
2018-10-09T18:16:41.402Z,82.60
2018-10-09T18:19:09.986Z,82.48
2018-10-09T18:21:38.597Z,82.70
2018-10-09T18:24:07.866Z,82.88
2018-10-09T18:26:36.546Z,83.42
2018-10-09T18:29:05.225Z,84.12
2018-10-09T18:31:33.850Z,84.23
2018-10-09T18:34:02.566Z,84.31
2018-10-09T18:36:31.744Z,84.68
2018-10-09T18:39:00.314Z,85.04
2018-10-09T18:41:29.316Z,84.20
2018-10-09T18:43:57.991Z,84.95
2018-10-09T18:46:26.746Z,84.43
2018-10-09T18:48:55.373Z,83.53
2018-10-09T18:51:23.979Z,83.98
2018-10-09T18:53:52.712Z,83.58
2018-10-09T18:56:21.269Z,84.51
2018-10-09T18:58:49.853Z,84.33
2018-10-09T19:01:18.720Z,84.24
2018-10-09T19:03:47.337Z,84.33
2018-10-09T19:06:15.907Z,85.60
2018-10-09T19:08:44.609Z,85.18
2018-10-09T19:11:13.174Z,85.97
2018-10-09T19:13:41.785Z,86.12
2018-10-09T19:16:10.350Z,86.38
2018-10-09T19:18:39.002Z,86.49
2018-10-09T19:21:07.554Z,86.87
2018-10-09T19:23:36.470Z,86.70
2018-10-09T19:26:05.138Z,86.13
2018-10-09T19:28:33.673Z,86.02
2018-10-09T19:31:02.260Z,86.14
2018-10-09T19:33:30.850Z,86.15
2018-10-09T19:35:59.619Z,86.69
2018-10-09T19:38:28.324Z,87.01
2018-10-09T19:40:56.889Z,87.19
2018-10-09T19:43:25.419Z,87.12
2018-10-09T19:45:53.992Z,86.52
2018-10-09T19:48:22.558Z,87.13
2018-10-09T19:50:51.310Z,87.38
2018-10-09T19:53:20.131Z,87.95
2018-10-09T19:55:48.727Z,87.51
2018-10-09T19:58:17.648Z,87.26
2018-10-09T20:00:46.277Z,87.39
2018-10-09T20:03:15.665Z,88.35
2018-10-09T20:05:44.221Z,87.92
2018-10-09T20:08:12.854Z,87.33
2018-10-09T20:10:41.413Z,88.33
2018-10-09T20:13:10.061Z,88.12
2018-10-09T20:15:38.899Z,87.88
2018-10-09T20:18:07.600Z,88.28
2018-10-09T20:20:36.198Z,88.89
2018-10-09T20:23:04.786Z,88.70
2018-10-09T20:25:33.359Z,88.74
2018-10-09T20:28:01.948Z,88.20
2018-10-09T20:30:30.828Z,88.39
2018-10-09T20:32:59.527Z,88.44
2018-10-09T20:35:28.099Z,88.83
2018-10-09T20:37:56.762Z,88.06
2018-10-09T20:40:25.333Z,89.13
2018-10-09T20:42:53.887Z,89.17
2018-10-09T20:45:22.486Z,89.43
2018-10-09T20:47:51.081Z,89.27
2018-10-09T20:50:19.740Z,89.50
2018-10-09T20:52:48.286Z,89.99
2018-10-09T20:55:16.863Z,90.75
2018-10-09T20:57:45.447Z,91.05
2018-10-09T21:00:14.385Z,90.48
2018-10-09T21:02:42.972Z,90.00
2018-10-09T21:05:11.667Z,89.29
2018-10-09T21:07:40.322Z,89.67
2018-10-09T21:10:08.941Z,88.87
2018-10-09T21:12:37.571Z,88.75
2018-10-09T21:15:06.209Z,89.41
2018-10-09T21:17:34.880Z,89.67
2018-10-09T21:20:03.565Z,89.62
2018-10-09T21:22:32.305Z,89.82
2018-10-09T21:25:00.953Z,90.33
2018-10-09T21:27:29.538Z,89.77
2018-10-09T21:29:58.588Z,89.17
2018-10-09T21:32:27.563Z,89.03
2018-10-09T21:34:56.126Z,89.23
2018-10-09T21:37:24.732Z,88.37
2018-10-09T21:39:53.445Z,89.51
2018-10-09T21:42:22.062Z,90.11
2018-10-09T21:44:50.661Z,90.37
2018-10-09T21:47:19.230Z,90.90
2018-10-09T21:49:47.861Z,90.90
2018-10-09T21:52:16.587Z,90.72
2018-10-09T21:54:45.189Z,89.58
2018-10-09T21:57:14.629Z,90.13
2018-10-09T21:59:43.214Z,89.50
2018-10-09T22:02:11.894Z,90.32
2018-10-09T22:04:40.453Z,89.71
2018-10-09T22:07:09.085Z,90.03
2018-10-09T22:09:37.669Z,90.42
2018-10-09T22:12:06.254Z,90.79
2018-10-09T22:14:34.945Z,90.91
2018-10-09T22:17:03.552Z,90.32
2018-10-09T22:19:32.286Z,91.25
2018-10-09T22:22:01.053Z,90.17
2018-10-09T22:24:29.877Z,90.68
2018-10-09T22:26:58.673Z,90.80
2018-10-09T22:29:27.425Z,90.51
2018-10-09T22:31:56.014Z,90.18
2018-10-09T22:34:24.820Z,90.33
2018-10-09T22:36:53.415Z,90.55
2018-10-09T22:39:22.135Z,90.39
2018-10-09T22:41:50.678Z,90.86
2018-10-09T22:44:19.901Z,91.19
2018-10-09T22:46:48.573Z,91.06
2018-10-09T22:49:17.403Z,91.92
2018-10-09T22:51:46.045Z,91.74
2018-10-09T22:54:14.856Z,92.07
2018-10-09T22:56:43.502Z,91.81
2018-10-09T22:59:12.046Z,91.33
2018-10-09T23:01:40.588Z,91.88
2018-10-09T23:04:09.515Z,92.53
2018-10-09T23:06:38.138Z,92.29
2018-10-09T23:09:09.167Z,92.72
2018-10-09T23:11:38.119Z,91.58
2018-10-09T23:14:06.858Z,91.58
2018-10-09T23:16:35.822Z,91.39
2018-10-09T23:19:04.516Z,90.18
2018-10-09T23:21:33.219Z,91.06
2018-10-09T23:24:01.777Z,90.59
2018-10-09T23:26:30.364Z,90.80
2018-10-09T23:28:58.945Z,90.79
2018-10-09T23:31:27.477Z,91.55
2018-10-09T23:33:56.206Z,91.76
2018-10-09T23:36:24.825Z,91.59
2018-10-09T23:38:53.400Z,91.68
2018-10-09T23:41:21.999Z,92.33
2018-10-09T23:43:50.566Z,92.05
2018-10-09T23:46:19.108Z,92.52
2018-10-09T23:48:47.890Z,92.99
2018-10-09T23:51:16.694Z,91.54
2018-10-09T23:53:45.797Z,91.26
2018-10-09T23:56:14.353Z,91.10
2018-10-09T23:58:42.909Z,91.17
